sensor_id;sensor_type;location;lat;lon;timestamp;P1;durP1;ratioP1;P2;durP2;ratioP2
73557;SDS011;61829;53.286;10.434;2023-08-31T00:01:13;12.65;;;8.55;;
73557;SDS011;61829;53.286;10.434;2023-08-31T00:03:39;12.43;;;8.25;;
73557;SDS011;61829;53.286;10.434;2023-08-31T00:06:05;14.32;;;8.40;;
73557;SDS011;61829;53.286;10.434;2023-08-31T00:08:33;13.38;;;8.05;;
73557;SDS011;61829;53.286;10.434;2023-08-31T00:11:00;12.00;;;8.65;;
73557;SDS011;61829;53.286;10.434;2023-08-31T00:13:26;12.73;;;7.03;;
73557;SDS011;61829;53.286;10.434;2023-08-31T00:15:56;11.55;;;7.70;;
73557;SDS011;61829;53.286;10.434;2023-08-31T00:18:23;13.13;;;8.02;;
73557;SDS011;61829;53.286;10.434;2023-08-31T00:20:50;14.38;;;8.50;;
73557;SDS011;61829;53.286;10.434;2023-08-31T00:23:16;12.82;;;7.78;;
73557;SDS011;61829;53.286;10.434;2023-08-31T00:25:43;12.20;;;7.78;;
73557;SDS011;61829;53.286;10.434;2023-08-31T00:28:09;12.60;;;7.90;;
73557;SDS011;61829;53.286;10.434;2023-08-31T00:30:35;13.18;;;8.20;;
73557;SDS011;61829;53.286;10.434;2023-08-31T00:33:01;17.05;;;9.00;;
73557;SDS011;61829;53.286;10.434;2023-08-31T00:35:27;14.63;;;8.85;;
73557;SDS011;61829;53.286;10.434;2023-08-31T00:37:54;13.18;;;8.32;;
73557;SDS011;61829;53.286;10.434;2023-08-31T00:40:24;18.65;;;9.05;;
73557;SDS011;61829;53.286;10.434;2023-08-31T00:42:51;10.98;;;7.78;;
73557;SDS011;61829;53.286;10.434;2023-08-31T00:45:17;13.10;;;8.25;;
73557;SDS011;61829;53.286;10.434;2023-08-31T00:47:45;12.88;;;7.78;;
73557;SDS011;61829;53.286;10.434;2023-08-31T00:50:13;12.25;;;8.35;;
73557;SDS011;61829;53.286;10.434;2023-08-31T00:52:40;13.32;;;8.80;;
73557;SDS011;61829;53.286;10.434;2023-08-31T00:55:07;14.85;;;9.23;;
73557;SDS011;61829;53.286;10.434;2023-08-31T00:57:34;11.48;;;7.82;;
73557;SDS011;61829;53.286;10.434;2023-08-31T01:00:00;11.18;;;7.03;;
73557;SDS011;61829;53.286;10.434;2023-08-31T01:12:59;11.18;;;7.53;;
73557;SDS011;61829;53.286;10.434;2023-08-31T01:15:36;20.13;;;8.00;;
73557;SDS011;61829;53.286;10.434;2023-08-31T01:18:06;12.18;;;7.85;;
73557;SDS011;61829;53.286;10.434;2023-08-31T01:20:38;11.30;;;7.63;;
73557;SDS011;61829;53.286;10.434;2023-08-31T01:23:11;11.32;;;7.10;;
73557;SDS011;61829;53.286;10.434;2023-08-31T01:25:41;14.18;;;7.38;;
73557;SDS011;61829;53.286;10.434;2023-08-31T01:28:09;11.43;;;7.35;;
73557;SDS011;61829;53.286;10.434;2023-08-31T01:30:36;10.82;;;6.55;;
73557;SDS011;61829;53.286;10.434;2023-08-31T01:33:02;13.88;;;8.05;;
73557;SDS011;61829;53.286;10.434;2023-08-31T01:35:30;10.75;;;7.57;;
73557;SDS011;61829;53.286;10.434;2023-08-31T01:38:03;11.63;;;8.10;;
73557;SDS011;61829;53.286;10.434;2023-08-31T01:40:35;11.27;;;7.35;;
73557;SDS011;61829;53.286;10.434;2023-08-31T01:43:09;10.68;;;6.95;;
73557;SDS011;61829;53.286;10.434;2023-08-31T01:48:06;12.88;;;6.85;;
73557;SDS011;61829;53.286;10.434;2023-08-31T01:50:32;12.30;;;7.28;;
73557;SDS011;61829;53.286;10.434;2023-08-31T01:52:59;14.80;;;7.55;;
73557;SDS011;61829;53.286;10.434;2023-08-31T01:55:24;13.13;;;7.80;;
73557;SDS011;61829;53.286;10.434;2023-08-31T01:57:51;10.57;;;7.25;;
73557;SDS011;61829;53.286;10.434;2023-08-31T02:00:17;11.60;;;7.45;;
73557;SDS011;61829;53.286;10.434;2023-08-31T02:02:44;14.98;;;8.55;;
73557;SDS011;61829;53.286;10.434;2023-08-31T02:05:10;13.70;;;7.38;;
73557;SDS011;61829;53.286;10.434;2023-08-31T02:07:36;14.50;;;7.15;;
73557;SDS011;61829;53.286;10.434;2023-08-31T02:10:03;12.15;;;7.63;;
73557;SDS011;61829;53.286;10.434;2023-08-31T02:12:32;11.13;;;7.05;;
73557;SDS011;61829;53.286;10.434;2023-08-31T02:14:58;11.43;;;7.70;;
73557;SDS011;61829;53.286;10.434;2023-08-31T02:17:25;12.00;;;7.47;;
73557;SDS011;61829;53.286;10.434;2023-08-31T02:19:51;14.00;;;7.30;;
73557;SDS011;61829;53.286;10.434;2023-08-31T02:22:18;12.75;;;7.32;;
73557;SDS011;61829;53.286;10.434;2023-08-31T02:24:44;11.82;;;7.38;;
73557;SDS011;61829;53.286;10.434;2023-08-31T02:27:10;12.23;;;6.47;;
73557;SDS011;61829;53.286;10.434;2023-08-31T02:29:36;11.18;;;6.85;;
73557;SDS011;61829;53.286;10.434;2023-08-31T02:32:06;11.68;;;6.95;;
73557;SDS011;61829;53.286;10.434;2023-08-31T02:34:32;12.10;;;7.10;;
73557;SDS011;61829;53.286;10.434;2023-08-31T02:36:58;13.00;;;6.45;;
73557;SDS011;61829;53.286;10.434;2023-08-31T02:39:24;13.05;;;6.53;;
73557;SDS011;61829;53.286;10.434;2023-08-31T02:41:50;9.93;;;5.72;;
73557;SDS011;61829;53.286;10.434;2023-08-31T02:44:16;13.18;;;6.47;;
73557;SDS011;61829;53.286;10.434;2023-08-31T02:46:43;11.88;;;6.50;;
73557;SDS011;61829;53.286;10.434;2023-08-31T02:49:09;14.10;;;6.68;;
73557;SDS011;61829;53.286;10.434;2023-08-31T02:51:35;11.25;;;6.05;;
73557;SDS011;61829;53.286;10.434;2023-08-31T02:54:01;11.45;;;5.60;;
73557;SDS011;61829;53.286;10.434;2023-08-31T02:56:29;11.93;;;5.50;;
73557;SDS011;61829;53.286;10.434;2023-08-31T02:58:55;12.63;;;5.95;;
73557;SDS011;61829;53.286;10.434;2023-08-31T03:01:21;11.15;;;5.80;;
73557;SDS011;61829;53.286;10.434;2023-08-31T03:03:48;11.88;;;5.07;;
73557;SDS011;61829;53.286;10.434;2023-08-31T03:06:15;9.90;;;4.85;;
73557;SDS011;61829;53.286;10.434;2023-08-31T03:08:41;8.30;;;4.80;;
73557;SDS011;61829;53.286;10.434;2023-08-31T03:11:07;6.95;;;4.47;;
73557;SDS011;61829;53.286;10.434;2023-08-31T03:13:33;10.07;;;5.30;;
73557;SDS011;61829;53.286;10.434;2023-08-31T03:16:00;9.90;;;5.38;;
73557;SDS011;61829;53.286;10.434;2023-08-31T03:18:26;7.57;;;4.22;;
73557;SDS011;61829;53.286;10.434;2023-08-31T03:20:52;11.88;;;5.03;;
73557;SDS011;61829;53.286;10.434;2023-08-31T03:23:18;8.30;;;4.80;;
73557;SDS011;61829;53.286;10.434;2023-08-31T03:25:44;7.05;;;4.07;;
73557;SDS011;61829;53.286;10.434;2023-08-31T03:28:10;9.15;;;5.03;;
73557;SDS011;61829;53.286;10.434;2023-08-31T03:30:36;10.73;;;4.55;;
73557;SDS011;61829;53.286;10.434;2023-08-31T03:33:02;12.82;;;4.97;;
73557;SDS011;61829;53.286;10.434;2023-08-31T03:35:29;9.27;;;4.60;;
73557;SDS011;61829;53.286;10.434;2023-08-31T03:37:55;9.88;;;4.82;;
73557;SDS011;61829;53.286;10.434;2023-08-31T03:40:22;7.13;;;4.40;;
73557;SDS011;61829;53.286;10.434;2023-08-31T03:42:51;10.15;;;4.15;;
73557;SDS011;61829;53.286;10.434;2023-08-31T03:45:18;10.10;;;4.05;;
73557;SDS011;61829;53.286;10.434;2023-08-31T03:47:44;7.85;;;4.30;;
73557;SDS011;61829;53.286;10.434;2023-08-31T03:50:10;9.25;;;4.07;;
73557;SDS011;61829;53.286;10.434;2023-08-31T03:52:36;6.47;;;4.40;;
73557;SDS011;61829;53.286;10.434;2023-08-31T03:55:02;7.20;;;4.03;;
73557;SDS011;61829;53.286;10.434;2023-08-31T03:57:29;9.35;;;4.00;;
73557;SDS011;61829;53.286;10.434;2023-08-31T03:59:55;6.25;;;3.80;;
73557;SDS011;61829;53.286;10.434;2023-08-31T04:02:21;9.93;;;4.20;;
73557;SDS011;61829;53.286;10.434;2023-08-31T04:04:47;7.50;;;3.58;;
73557;SDS011;61829;53.286;10.434;2023-08-31T04:07:13;9.43;;;3.67;;
73557;SDS011;61829;53.286;10.434;2023-08-31T04:09:39;6.32;;;3.30;;
73557;SDS011;61829;53.286;10.434;2023-08-31T04:12:05;6.07;;;4.03;;
73557;SDS011;61829;53.286;10.434;2023-08-31T04:14:33;6.18;;;3.60;;
73557;SDS011;61829;53.286;10.434;2023-08-31T04:16:58;6.93;;;3.22;;
73557;SDS011;61829;53.286;10.434;2023-08-31T04:19:24;7.90;;;3.80;;
73557;SDS011;61829;53.286;10.434;2023-08-31T04:21:52;9.18;;;3.80;;
73557;SDS011;61829;53.286;10.434;2023-08-31T04:24:18;11.52;;;3.65;;
73557;SDS011;61829;53.286;10.434;2023-08-31T04:26:44;5.90;;;3.63;;
73557;SDS011;61829;53.286;10.434;2023-08-31T04:29:10;6.85;;;3.75;;
73557;SDS011;61829;53.286;10.434;2023-08-31T04:31:36;8.02;;;3.95;;
73557;SDS011;61829;53.286;10.434;2023-08-31T04:36:29;5.97;;;3.45;;
73557;SDS011;61829;53.286;10.434;2023-08-31T04:38:56;7.80;;;4.35;;
73557;SDS011;61829;53.286;10.434;2023-08-31T04:41:21;7.50;;;3.60;;
73557;SDS011;61829;53.286;10.434;2023-08-31T04:43:48;11.90;;;4.63;;
73557;SDS011;61829;53.286;10.434;2023-08-31T04:46:14;10.02;;;4.43;;
73557;SDS011;61829;53.286;10.434;2023-08-31T04:48:40;6.43;;;4.00;;
73557;SDS011;61829;53.286;10.434;2023-08-31T04:51:06;13.93;;;4.78;;
73557;SDS011;61829;53.286;10.434;2023-08-31T04:53:32;10.85;;;4.78;;
73557;SDS011;61829;53.286;10.434;2023-08-31T04:55:58;8.80;;;5.15;;
73557;SDS011;61829;53.286;10.434;2023-08-31T04:58:24;7.40;;;4.32;;
73557;SDS011;61829;53.286;10.434;2023-08-31T05:00:53;10.45;;;4.40;;
73557;SDS011;61829;53.286;10.434;2023-08-31T05:03:19;10.23;;;4.90;;
73557;SDS011;61829;53.286;10.434;2023-08-31T05:05:45;10.45;;;4.93;;
73557;SDS011;61829;53.286;10.434;2023-08-31T05:08:11;9.32;;;5.10;;
73557;SDS011;61829;53.286;10.434;2023-08-31T05:10:37;11.80;;;5.55;;
73557;SDS011;61829;53.286;10.434;2023-08-31T05:13:05;7.05;;;4.88;;
73557;SDS011;61829;53.286;10.434;2023-08-31T05:15:30;11.75;;;5.43;;
73557;SDS011;61829;53.286;10.434;2023-08-31T05:17:59;7.57;;;4.43;;
73557;SDS011;61829;53.286;10.434;2023-08-31T05:20:25;7.15;;;4.72;;
73557;SDS011;61829;53.286;10.434;2023-08-31T05:22:51;11.60;;;4.63;;
73557;SDS011;61829;53.286;10.434;2023-08-31T05:25:17;9.35;;;4.47;;
73557;SDS011;61829;53.286;10.434;2023-08-31T05:27:44;8.63;;;4.35;;
73557;SDS011;61829;53.286;10.434;2023-08-31T05:30:10;9.40;;;4.50;;
73557;SDS011;61829;53.286;10.434;2023-08-31T05:32:36;10.05;;;4.63;;
73557;SDS011;61829;53.286;10.434;2023-08-31T05:35:02;6.32;;;3.42;;
73557;SDS011;61829;53.286;10.434;2023-08-31T05:37:32;6.30;;;3.97;;
73557;SDS011;61829;53.286;10.434;2023-08-31T05:40:01;7.40;;;3.80;;
73557;SDS011;61829;53.286;10.434;2023-08-31T05:42:32;7.72;;;3.92;;
73557;SDS011;61829;53.286;10.434;2023-08-31T05:44:58;5.57;;;3.65;;
73557;SDS011;61829;53.286;10.434;2023-08-31T05:47:24;6.65;;;3.28;;
73557;SDS011;61829;53.286;10.434;2023-08-31T05:49:50;7.72;;;3.30;;
73557;SDS011;61829;53.286;10.434;2023-08-31T05:52:17;7.03;;;3.35;;
73557;SDS011;61829;53.286;10.434;2023-08-31T05:54:44;9.60;;;3.15;;
73557;SDS011;61829;53.286;10.434;2023-08-31T05:57:10;5.50;;;3.58;;
73557;SDS011;61829;53.286;10.434;2023-08-31T05:59:36;7.07;;;2.92;;
73557;SDS011;61829;53.286;10.434;2023-08-31T06:02:06;4.85;;;2.78;;
73557;SDS011;61829;53.286;10.434;2023-08-31T06:04:34;6.97;;;3.20;;
73557;SDS011;61829;53.286;10.434;2023-08-31T06:07:00;5.97;;;2.75;;
73557;SDS011;61829;53.286;10.434;2023-08-31T06:09:26;6.68;;;3.33;;
73557;SDS011;61829;53.286;10.434;2023-08-31T06:18:09;6.47;;;2.47;;
73557;SDS011;61829;53.286;10.434;2023-08-31T06:20:35;6.57;;;2.58;;
73557;SDS011;61829;53.286;10.434;2023-08-31T06:23:01;6.43;;;2.95;;
73557;SDS011;61829;53.286;10.434;2023-08-31T06:25:28;6.72;;;2.67;;
73557;SDS011;61829;53.286;10.434;2023-08-31T06:27:54;4.13;;;2.58;;
73557;SDS011;61829;53.286;10.434;2023-08-31T06:30:20;6.95;;;2.95;;
73557;SDS011;61829;53.286;10.434;2023-08-31T06:32:47;5.47;;;2.25;;
73557;SDS011;61829;53.286;10.434;2023-08-31T06:35:14;4.68;;;2.58;;
73557;SDS011;61829;53.286;10.434;2023-08-31T06:37:43;3.92;;;2.35;;
73557;SDS011;61829;53.286;10.434;2023-08-31T06:40:11;5.43;;;2.35;;
73557;SDS011;61829;53.286;10.434;2023-08-31T06:42:38;9.73;;;3.10;;
73557;SDS011;61829;53.286;10.434;2023-08-31T06:45:05;5.15;;;2.45;;
73557;SDS011;61829;53.286;10.434;2023-08-31T06:47:33;7.15;;;2.47;;
73557;SDS011;61829;53.286;10.434;2023-08-31T06:49:59;5.03;;;2.90;;
73557;SDS011;61829;53.286;10.434;2023-08-31T06:52:27;7.13;;;2.90;;
73557;SDS011;61829;53.286;10.434;2023-08-31T06:54:53;4.78;;;2.70;;
73557;SDS011;61829;53.286;10.434;2023-08-31T06:57:21;7.45;;;3.30;;
73557;SDS011;61829;53.286;10.434;2023-08-31T06:59:50;6.25;;;2.97;;
73557;SDS011;61829;53.286;10.434;2023-08-31T07:02:16;6.03;;;2.80;;
73557;SDS011;61829;53.286;10.434;2023-08-31T07:04:44;7.75;;;2.80;;
73557;SDS011;61829;53.286;10.434;2023-08-31T07:09:42;5.43;;;2.45;;
73557;SDS011;61829;53.286;10.434;2023-08-31T07:12:10;5.65;;;2.72;;
73557;SDS011;61829;53.286;10.434;2023-08-31T07:14:36;4.57;;;2.85;;
73557;SDS011;61829;53.286;10.434;2023-08-31T07:17:02;4.80;;;2.30;;
73557;SDS011;61829;53.286;10.434;2023-08-31T07:19:28;4.95;;;2.55;;
73557;SDS011;61829;53.286;10.434;2023-08-31T07:21:55;5.75;;;2.50;;
73557;SDS011;61829;53.286;10.434;2023-08-31T07:24:22;4.78;;;2.20;;
73557;SDS011;61829;53.286;10.434;2023-08-31T07:26:49;4.50;;;2.50;;
73557;SDS011;61829;53.286;10.434;2023-08-31T07:29:16;7.03;;;2.42;;
73557;SDS011;61829;53.286;10.434;2023-08-31T07:31:42;4.95;;;2.10;;
73557;SDS011;61829;53.286;10.434;2023-08-31T07:34:08;4.60;;;1.90;;
73557;SDS011;61829;53.286;10.434;2023-08-31T07:36:36;5.10;;;2.35;;
73557;SDS011;61829;53.286;10.434;2023-08-31T07:39:19;5.28;;;2.15;;
73557;SDS011;61829;53.286;10.434;2023-08-31T07:41:45;3.97;;;1.88;;
73557;SDS011;61829;53.286;10.434;2023-08-31T07:44:11;5.82;;;2.38;;
73557;SDS011;61829;53.286;10.434;2023-08-31T07:46:37;6.50;;;2.17;;
73557;SDS011;61829;53.286;10.434;2023-08-31T07:49:03;5.35;;;2.10;;
73557;SDS011;61829;53.286;10.434;2023-08-31T07:51:30;3.55;;;1.95;;
73557;SDS011;61829;53.286;10.434;2023-08-31T07:53:56;3.47;;;1.80;;
73557;SDS011;61829;53.286;10.434;2023-08-31T07:56:22;4.50;;;1.80;;
73557;SDS011;61829;53.286;10.434;2023-08-31T07:58:49;4.63;;;1.90;;
73557;SDS011;61829;53.286;10.434;2023-08-31T08:01:16;5.38;;;1.73;;
73557;SDS011;61829;53.286;10.434;2023-08-31T08:03:43;4.95;;;1.90;;
73557;SDS011;61829;53.286;10.434;2023-08-31T08:06:09;4.15;;;1.40;;
73557;SDS011;61829;53.286;10.434;2023-08-31T08:08:35;5.32;;;1.80;;
73557;SDS011;61829;53.286;10.434;2023-08-31T08:11:03;4.65;;;1.50;;
73557;SDS011;61829;53.286;10.434;2023-08-31T08:13:29;4.43;;;1.67;;
73557;SDS011;61829;53.286;10.434;2023-08-31T08:15:56;4.10;;;1.23;;
73557;SDS011;61829;53.286;10.434;2023-08-31T08:18:21;2.50;;;1.35;;
73557;SDS011;61829;53.286;10.434;2023-08-31T08:20:48;3.38;;;1.60;;
73557;SDS011;61829;53.286;10.434;2023-08-31T08:23:16;3.97;;;1.58;;
73557;SDS011;61829;53.286;10.434;2023-08-31T08:25:42;3.28;;;2.00;;
73557;SDS011;61829;53.286;10.434;2023-08-31T08:28:09;5.57;;;2.20;;
73557;SDS011;61829;53.286;10.434;2023-08-31T08:30:35;4.15;;;2.38;;
73557;SDS011;61829;53.286;10.434;2023-08-31T08:33:01;3.60;;;2.17;;
73557;SDS011;61829;53.286;10.434;2023-08-31T08:35:28;6.45;;;2.55;;
73557;SDS011;61829;53.286;10.434;2023-08-31T08:37:54;5.38;;;2.30;;
73557;SDS011;61829;53.286;10.434;2023-08-31T08:40:20;4.90;;;2.60;;
73557;SDS011;61829;53.286;10.434;2023-08-31T08:42:46;8.55;;;2.40;;
73557;SDS011;61829;53.286;10.434;2023-08-31T08:45:13;6.50;;;2.60;;
73557;SDS011;61829;53.286;10.434;2023-08-31T08:47:44;4.35;;;2.08;;
73557;SDS011;61829;53.286;10.434;2023-08-31T08:50:11;4.85;;;2.00;;
73557;SDS011;61829;53.286;10.434;2023-08-31T08:52:38;4.85;;;1.80;;
73557;SDS011;61829;53.286;10.434;2023-08-31T08:55:05;2.70;;;1.80;;
73557;SDS011;61829;53.286;10.434;2023-08-31T08:57:33;4.50;;;1.80;;
73557;SDS011;61829;53.286;10.434;2023-08-31T09:00:00;4.25;;;1.55;;
73557;SDS011;61829;53.286;10.434;2023-08-31T09:02:26;4.25;;;1.63;;
73557;SDS011;61829;53.286;10.434;2023-08-31T09:04:52;3.38;;;1.27;;
73557;SDS011;61829;53.286;10.434;2023-08-31T09:07:20;1.70;;;1.10;;
73557;SDS011;61829;53.286;10.434;2023-08-31T09:09:47;3.42;;;1.40;;
73557;SDS011;61829;53.286;10.434;2023-08-31T09:12:15;4.50;;;1.40;;
73557;SDS011;61829;53.286;10.434;2023-08-31T09:14:42;2.83;;;1.40;;
73557;SDS011;61829;53.286;10.434;2023-08-31T09:17:08;4.15;;;1.77;;
73557;SDS011;61829;53.286;10.434;2023-08-31T09:19:34;3.22;;;1.52;;
73557;SDS011;61829;53.286;10.434;2023-08-31T09:22:00;4.70;;;1.50;;
73557;SDS011;61829;53.286;10.434;2023-08-31T09:27:29;2.47;;;1.45;;
73557;SDS011;61829;53.286;10.434;2023-08-31T09:29:56;3.88;;;1.60;;
73557;SDS011;61829;53.286;10.434;2023-08-31T09:32:23;3.58;;;1.88;;
73557;SDS011;61829;53.286;10.434;2023-08-31T09:34:49;4.03;;;1.90;;
73557;SDS011;61829;53.286;10.434;2023-08-31T09:37:15;2.60;;;1.40;;
73557;SDS011;61829;53.286;10.434;2023-08-31T09:39:42;3.38;;;1.42;;
73557;SDS011;61829;53.286;10.434;2023-08-31T09:42:08;2.67;;;1.20;;
73557;SDS011;61829;53.286;10.434;2023-08-31T09:44:38;2.28;;;1.00;;
73557;SDS011;61829;53.286;10.434;2023-08-31T09:47:07;1.58;;;0.82;;
73557;SDS011;61829;53.286;10.434;2023-08-31T09:49:34;2.88;;;1.00;;
73557;SDS011;61829;53.286;10.434;2023-08-31T09:52:02;2.80;;;1.00;;
73557;SDS011;61829;53.286;10.434;2023-08-31T09:54:30;2.63;;;1.10;;
73557;SDS011;61829;53.286;10.434;2023-08-31T09:57:01;3.38;;;1.40;;
73557;SDS011;61829;53.286;10.434;2023-08-31T09:59:28;2.75;;;1.30;;
73557;SDS011;61829;53.286;10.434;2023-08-31T10:01:54;2.35;;;1.30;;
73557;SDS011;61829;53.286;10.434;2023-08-31T10:04:26;4.57;;;1.42;;
73557;SDS011;61829;53.286;10.434;2023-08-31T10:06:56;2.53;;;1.30;;
73557;SDS011;61829;53.286;10.434;2023-08-31T10:09:22;3.88;;;1.30;;
73557;SDS011;61829;53.286;10.434;2023-08-31T10:11:48;3.88;;;1.42;;
73557;SDS011;61829;53.286;10.434;2023-08-31T10:14:15;2.42;;;1.33;;
73557;SDS011;61829;53.286;10.434;2023-08-31T10:16:43;2.15;;;1.30;;
73557;SDS011;61829;53.286;10.434;2023-08-31T10:19:10;2.75;;;1.20;;
73557;SDS011;61829;53.286;10.434;2023-08-31T10:21:36;2.65;;;1.15;;
73557;SDS011;61829;53.286;10.434;2023-08-31T10:24:04;1.73;;;1.10;;
73557;SDS011;61829;53.286;10.434;2023-08-31T10:26:32;1.55;;;1.10;;
73557;SDS011;61829;53.286;10.434;2023-08-31T10:28:59;2.20;;;1.13;;
73557;SDS011;61829;53.286;10.434;2023-08-31T10:31:29;2.65;;;1.20;;
73557;SDS011;61829;53.286;10.434;2023-08-31T10:33:57;2.10;;;1.23;;
73557;SDS011;61829;53.286;10.434;2023-08-31T10:36:40;2.78;;;1.38;;
73557;SDS011;61829;53.286;10.434;2023-08-31T10:39:17;2.75;;;1.17;;
73557;SDS011;61829;53.286;10.434;2023-08-31T10:41:51;3.03;;;1.13;;
73557;SDS011;61829;53.286;10.434;2023-08-31T10:44:25;3.35;;;1.48;;
73557;SDS011;61829;53.286;10.434;2023-08-31T10:46:53;2.40;;;1.30;;
73557;SDS011;61829;53.286;10.434;2023-08-31T10:49:20;1.85;;;1.23;;
73557;SDS011;61829;53.286;10.434;2023-08-31T10:51:54;3.35;;;1.30;;
73557;SDS011;61829;53.286;10.434;2023-08-31T10:54:23;2.85;;;1.20;;
73557;SDS011;61829;53.286;10.434;2023-08-31T10:59:20;2.38;;;1.05;;
73557;SDS011;61829;53.286;10.434;2023-08-31T11:02:00;3.22;;;1.60;;
73557;SDS011;61829;53.286;10.434;2023-08-31T11:04:30;3.40;;;1.48;;
73557;SDS011;61829;53.286;10.434;2023-08-31T11:09:41;2.22;;;1.20;;
73557;SDS011;61829;53.286;10.434;2023-08-31T11:12:08;1.52;;;1.08;;
73557;SDS011;61829;53.286;10.434;2023-08-31T11:14:46;4.05;;;1.42;;
73557;SDS011;61829;53.286;10.434;2023-08-31T11:17:26;1.23;;;1.00;;
73557;SDS011;61829;53.286;10.434;2023-08-31T11:19:53;5.47;;;2.45;;
73557;SDS011;61829;53.286;10.434;2023-08-31T11:22:19;1.50;;;1.20;;
73557;SDS011;61829;53.286;10.434;2023-08-31T11:24:45;1.95;;;1.15;;
73557;SDS011;61829;53.286;10.434;2023-08-31T11:29:42;2.85;;;1.10;;
73557;SDS011;61829;53.286;10.434;2023-08-31T11:32:09;2.65;;;1.10;;
73557;SDS011;61829;53.286;10.434;2023-08-31T11:34:39;3.10;;;1.40;;
73557;SDS011;61829;53.286;10.434;2023-08-31T11:37:14;2.33;;;1.05;;
73557;SDS011;61829;53.286;10.434;2023-08-31T11:39:49;4.05;;;1.10;;
73557;SDS011;61829;53.286;10.434;2023-08-31T11:42:19;2.70;;;1.30;;
73557;SDS011;61829;53.286;10.434;2023-08-31T11:44:47;2.53;;;1.20;;
73557;SDS011;61829;53.286;10.434;2023-08-31T11:47:14;1.55;;;1.10;;
73557;SDS011;61829;53.286;10.434;2023-08-31T11:49:42;2.55;;;1.23;;
73557;SDS011;61829;53.286;10.434;2023-08-31T11:52:09;2.75;;;1.20;;
73557;SDS011;61829;53.286;10.434;2023-08-31T11:54:41;3.63;;;1.20;;
73557;SDS011;61829;53.286;10.434;2023-08-31T11:57:11;2.28;;;1.10;;
73557;SDS011;61829;53.286;10.434;2023-08-31T11:59:38;2.95;;;1.20;;
73557;SDS011;61829;53.286;10.434;2023-08-31T12:02:08;3.33;;;1.10;;
73557;SDS011;61829;53.286;10.434;2023-08-31T12:04:44;2.25;;;1.10;;
73557;SDS011;61829;53.286;10.434;2023-08-31T12:07:11;3.20;;;1.20;;
73557;SDS011;61829;53.286;10.434;2023-08-31T12:09:41;3.65;;;1.10;;
73557;SDS011;61829;53.286;10.434;2023-08-31T12:12:10;2.55;;;1.40;;
73557;SDS011;61829;53.286;10.434;2023-08-31T12:14:38;1.88;;;1.10;;
73557;SDS011;61829;53.286;10.434;2023-08-31T12:17:07;2.03;;;1.00;;
73557;SDS011;61829;53.286;10.434;2023-08-31T12:19:38;1.98;;;1.10;;
73557;SDS011;61829;53.286;10.434;2023-08-31T12:22:05;1.85;;;1.17;;
73557;SDS011;61829;53.286;10.434;2023-08-31T12:24:38;2.40;;;1.27;;
73557;SDS011;61829;53.286;10.434;2023-08-31T12:27:06;2.35;;;1.30;;
73557;SDS011;61829;53.286;10.434;2023-08-31T12:29:33;2.30;;;1.15;;
73557;SDS011;61829;53.286;10.434;2023-08-31T12:31:59;3.92;;;1.33;;
73557;SDS011;61829;53.286;10.434;2023-08-31T12:34:25;2.28;;;1.00;;
73557;SDS011;61829;53.286;10.434;2023-08-31T12:36:51;1.88;;;1.10;;
73557;SDS011;61829;53.286;10.434;2023-08-31T12:41:44;1.67;;;1.20;;
73557;SDS011;61829;53.286;10.434;2023-08-31T12:44:11;3.20;;;1.10;;
73557;SDS011;61829;53.286;10.434;2023-08-31T12:46:36;1.90;;;1.23;;
73557;SDS011;61829;53.286;10.434;2023-08-31T12:49:03;1.63;;;1.30;;
73557;SDS011;61829;53.286;10.434;2023-08-31T12:51:29;2.63;;;1.30;;
73557;SDS011;61829;53.286;10.434;2023-08-31T12:53:57;3.15;;;1.30;;
73557;SDS011;61829;53.286;10.434;2023-08-31T12:56:23;2.55;;;1.25;;
73557;SDS011;61829;53.286;10.434;2023-08-31T12:58:53;1.88;;;1.25;;
73557;SDS011;61829;53.286;10.434;2023-08-31T13:01:20;2.97;;;1.60;;
73557;SDS011;61829;53.286;10.434;2023-08-31T13:03:48;2.53;;;1.30;;
73557;SDS011;61829;53.286;10.434;2023-08-31T13:06:15;2.63;;;1.30;;
73557;SDS011;61829;53.286;10.434;2023-08-31T13:08:47;3.30;;;1.55;;
73557;SDS011;61829;53.286;10.434;2023-08-31T13:11:13;3.10;;;1.50;;
73557;SDS011;61829;53.286;10.434;2023-08-31T13:13:40;2.13;;;1.25;;
73557;SDS011;61829;53.286;10.434;2023-08-31T13:16:06;3.35;;;1.20;;
73557;SDS011;61829;53.286;10.434;2023-08-31T13:18:33;3.58;;;1.33;;
73557;SDS011;61829;53.286;10.434;2023-08-31T13:21:00;2.70;;;1.38;;
73557;SDS011;61829;53.286;10.434;2023-08-31T13:23:26;2.08;;;1.13;;
73557;SDS011;61829;53.286;10.434;2023-08-31T13:25:52;2.25;;;1.08;;
73557;SDS011;61829;53.286;10.434;2023-08-31T13:28:19;2.58;;;1.30;;
73557;SDS011;61829;53.286;10.434;2023-08-31T13:30:45;2.33;;;1.10;;
73557;SDS011;61829;53.286;10.434;2023-08-31T13:33:12;3.67;;;1.33;;
73557;SDS011;61829;53.286;10.434;2023-08-31T13:35:38;2.67;;;1.02;;
73557;SDS011;61829;53.286;10.434;2023-08-31T13:38:04;5.35;;;1.30;;
73557;SDS011;61829;53.286;10.434;2023-08-31T13:40:30;3.47;;;1.10;;
73557;SDS011;61829;53.286;10.434;2023-08-31T13:42:57;2.67;;;1.15;;
73557;SDS011;61829;53.286;10.434;2023-08-31T13:45:29;2.33;;;1.10;;
73557;SDS011;61829;53.286;10.434;2023-08-31T13:47:58;3.08;;;1.00;;
73557;SDS011;61829;53.286;10.434;2023-08-31T13:50:29;5.45;;;0.93;;
73557;SDS011;61829;53.286;10.434;2023-08-31T13:52:56;1.65;;;0.90;;
73557;SDS011;61829;53.286;10.434;2023-08-31T13:55:22;2.85;;;1.23;;
73557;SDS011;61829;53.286;10.434;2023-08-31T13:57:49;2.47;;;0.75;;
73557;SDS011;61829;53.286;10.434;2023-08-31T14:00:15;2.10;;;0.70;;
73557;SDS011;61829;53.286;10.434;2023-08-31T14:02:42;0.95;;;0.68;;
73557;SDS011;61829;53.286;10.434;2023-08-31T14:05:12;0.70;;;0.50;;
73557;SDS011;61829;53.286;10.434;2023-08-31T14:07:40;0.93;;;0.52;;
73557;SDS011;61829;53.286;10.434;2023-08-31T14:10:06;0.77;;;0.63;;
73557;SDS011;61829;53.286;10.434;2023-08-31T14:12:33;0.73;;;0.55;;
73557;SDS011;61829;53.286;10.434;2023-08-31T14:14:59;2.60;;;0.80;;
73557;SDS011;61829;53.286;10.434;2023-08-31T14:17:30;2.22;;;0.63;;
73557;SDS011;61829;53.286;10.434;2023-08-31T14:22:24;2.25;;;0.80;;
73557;SDS011;61829;53.286;10.434;2023-08-31T14:24:50;3.00;;;0.68;;
73557;SDS011;61829;53.286;10.434;2023-08-31T14:27:17;0.70;;;0.70;;
73557;SDS011;61829;53.286;10.434;2023-08-31T14:29:42;2.15;;;0.68;;
73557;SDS011;61829;53.286;10.434;2023-08-31T14:32:09;0.85;;;0.60;;
73557;SDS011;61829;53.286;10.434;2023-08-31T14:34:34;1.20;;;0.70;;
73557;SDS011;61829;53.286;10.434;2023-08-31T14:37:01;0.60;;;0.50;;
73557;SDS011;61829;53.286;10.434;2023-08-31T14:39:27;0.95;;;0.82;;
73557;SDS011;61829;53.286;10.434;2023-08-31T14:41:59;1.80;;;0.95;;
73557;SDS011;61829;53.286;10.434;2023-08-31T14:44:25;3.08;;;0.80;;
73557;SDS011;61829;53.286;10.434;2023-08-31T14:46:52;1.95;;;0.85;;
73557;SDS011;61829;53.286;10.434;2023-08-31T14:49:18;1.50;;;0.70;;
73557;SDS011;61829;53.286;10.434;2023-08-31T14:51:44;1.92;;;0.70;;
73557;SDS011;61829;53.286;10.434;2023-08-31T14:54:10;2.05;;;1.02;;
73557;SDS011;61829;53.286;10.434;2023-08-31T14:56:37;3.60;;;0.70;;
73557;SDS011;61829;53.286;10.434;2023-08-31T14:59:03;1.75;;;0.70;;
73557;SDS011;61829;53.286;10.434;2023-08-31T15:01:31;1.40;;;0.70;;
73557;SDS011;61829;53.286;10.434;2023-08-31T15:03:57;1.17;;;0.70;;
73557;SDS011;61829;53.286;10.434;2023-08-31T15:06:23;1.83;;;0.70;;
73557;SDS011;61829;53.286;10.434;2023-08-31T15:08:49;2.58;;;0.88;;
73557;SDS011;61829;53.286;10.434;2023-08-31T15:11:15;1.50;;;0.77;;